createdAt,value
2022-09-07T00:00:08.089Z,64.23
2022-09-07T00:01:08.076Z,64.23
2022-09-07T00:02:08.060Z,64.13
2022-09-07T00:03:08.197Z,64.13
2022-09-07T00:04:08.120Z,64.23
2022-09-07T00:05:08.023Z,64.33
2022-09-07T00:06:08.007Z,64.33
2022-09-07T00:07:07.997Z,64.33
2022-09-07T00:08:07.982Z,64.33
2022-09-07T00:09:07.970Z,64.30
2022-09-07T00:10:07.956Z,64.23
2022-09-07T00:11:07.944Z,64.33
2022-09-07T00:12:07.930Z,64.33
2022-09-07T00:13:07.918Z,64.40
2022-09-07T00:14:07.904Z,64.40
2022-09-07T00:15:07.892Z,64.43
2022-09-07T00:16:07.952Z,64.43
2022-09-07T00:17:07.868Z,64.43
2022-09-07T00:18:07.853Z,64.43
2022-09-07T00:19:07.843Z,64.43
2022-09-07T00:20:07.825Z,64.43
2022-09-07T00:21:07.826Z,64.43
2022-09-07T00:22:07.801Z,64.43
2022-09-07T00:23:07.789Z,64.53
2022-09-07T00:24:07.774Z,64.43
2022-09-07T00:25:07.763Z,64.43
2022-09-07T00:26:07.748Z,64.33
2022-09-07T00:27:07.746Z,64.33
2022-09-07T00:28:07.724Z,64.33
2022-09-07T00:29:07.713Z,64.33
2022-09-07T00:30:07.699Z,64.23
2022-09-07T00:31:07.752Z,64.23
2022-09-07T00:32:07.670Z,64.23
2022-09-07T00:33:07.665Z,64.23
2022-09-07T00:34:07.644Z,64.23
2022-09-07T00:35:07.635Z,64.23
2022-09-07T00:36:07.618Z,64.33
2022-09-07T00:37:07.608Z,64.33
2022-09-07T00:38:07.591Z,64.33
2022-09-07T00:39:07.582Z,64.43
2022-09-07T00:40:07.614Z,64.43
2022-09-07T00:41:07.554Z,64.33
2022-09-07T00:42:07.540Z,64.33
2022-09-07T00:43:07.528Z,64.33
2022-09-07T00:44:07.515Z,64.33
2022-09-07T00:45:07.503Z,64.23
2022-09-07T00:46:07.538Z,64.23
2022-09-07T00:47:07.477Z,64.23
2022-09-07T00:48:07.485Z,64.23
2022-09-07T00:49:07.451Z,64.23
2022-09-07T00:50:07.436Z,64.23
2022-09-07T00:51:07.426Z,64.23
2022-09-07T00:52:07.411Z,64.23
2022-09-07T00:53:07.406Z,64.23
2022-09-07T00:54:07.383Z,64.23
2022-09-07T00:55:07.374Z,64.23
2022-09-07T00:56:07.359Z,64.23
2022-09-07T00:57:07.347Z,64.23
2022-09-07T00:58:07.333Z,64.23
2022-09-07T00:59:07.325Z,64.23
2022-09-07T01:00:07.308Z,64.23
2022-09-07T01:01:07.296Z,64.23
2022-09-07T01:02:07.383Z,64.23
2022-09-07T01:03:07.359Z,64.23
2022-09-07T01:04:07.258Z,64.23
2022-09-07T01:05:09.542Z,64.23
2022-09-07T01:06:07.228Z,64.23
2022-09-07T01:07:07.217Z,64.23
2022-09-07T01:08:07.202Z,64.23
2022-09-07T01:09:07.190Z,64.23
2022-09-07T01:10:07.177Z,64.23
2022-09-07T01:11:07.164Z,64.23
2022-09-07T01:12:07.149Z,64.23
2022-09-07T01:13:07.141Z,64.23
2022-09-07T01:14:07.128Z,64.23
2022-09-07T01:15:07.112Z,64.23
2022-09-07T01:16:07.179Z,64.23
2022-09-07T01:17:13.089Z,64.23
2022-09-07T01:18:13.074Z,64.23
2022-09-07T01:19:07.058Z,64.23
2022-09-07T01:20:07.042Z,64.23
2022-09-07T01:21:07.033Z,64.23
2022-09-07T01:22:07.017Z,64.23
2022-09-07T01:23:07.005Z,64.23
2022-09-07T01:24:06.990Z,64.23
2022-09-07T01:25:06.979Z,64.23
2022-09-07T01:26:06.964Z,64.23
2022-09-07T01:27:12.957Z,64.23
2022-09-07T01:28:06.936Z,64.23
2022-09-07T01:29:06.925Z,64.23
2022-09-07T01:30:06.912Z,64.23
2022-09-07T01:31:06.940Z,64.23
2022-09-07T01:32:06.884Z,64.23
2022-09-07T01:33:06.878Z,64.23
2022-09-07T01:34:06.859Z,64.23
2022-09-07T01:35:06.849Z,64.23
2022-09-07T01:36:06.832Z,64.23
2022-09-07T01:37:06.821Z,64.23
2022-09-07T01:38:06.808Z,64.23
2022-09-07T01:39:06.802Z,64.23
2022-09-07T01:40:06.930Z,64.23
2022-09-07T01:41:06.770Z,64.23
2022-09-07T01:42:06.753Z,64.23
2022-09-07T01:43:06.742Z,64.23
2022-09-07T01:44:06.733Z,64.23
2022-09-07T01:45:06.718Z,64.23
2022-09-07T01:46:06.754Z,64.23
2022-09-07T01:47:06.691Z,64.23
2022-09-07T01:48:06.677Z,64.23
2022-09-07T01:49:06.668Z,64.23
2022-09-07T01:50:06.652Z,64.23
2022-09-07T01:51:06.643Z,64.23
2022-09-07T01:52:06.625Z,64.23
2022-09-07T01:53:06.616Z,64.23
2022-09-07T01:54:06.598Z,64.23
2022-09-07T01:55:06.588Z,64.23
2022-09-07T01:56:06.573Z,64.23
2022-09-07T01:57:06.562Z,64.23
2022-09-07T01:58:06.546Z,64.23
2022-09-07T01:59:06.536Z,64.23
2022-09-07T02:00:06.520Z,64.23
2022-09-07T02:01:06.512Z,64.13
2022-09-07T02:02:06.572Z,64.23
2022-09-07T02:03:06.546Z,64.23
2022-09-07T02:04:06.469Z,64.13
2022-09-07T02:05:06.458Z,64.23
2022-09-07T02:06:06.443Z,64.13
2022-09-07T02:07:06.431Z,64.23
2022-09-07T02:08:06.416Z,64.13
2022-09-07T02:09:06.406Z,64.23
2022-09-07T02:10:06.390Z,64.23
2022-09-07T02:11:06.380Z,64.23
2022-09-07T02:12:06.365Z,64.23
2022-09-07T02:13:06.353Z,64.23
2022-09-07T02:14:06.337Z,64.23
2022-09-07T02:15:06.328Z,64.23
2022-09-07T02:16:06.370Z,64.23
2022-09-07T02:17:06.301Z,64.23
2022-09-07T02:18:06.286Z,64.23
2022-09-07T02:19:06.280Z,64.23
2022-09-07T02:20:06.260Z,64.23
2022-09-07T02:21:06.248Z,64.23
2022-09-07T02:22:06.236Z,64.23
2022-09-07T02:23:06.223Z,64.23
2022-09-07T02:24:06.210Z,64.23
2022-09-07T02:25:06.196Z,64.23
2022-09-07T02:26:06.182Z,64.23
2022-09-07T02:27:06.173Z,64.23
2022-09-07T02:28:06.156Z,64.23
2022-09-07T02:29:06.145Z,64.23
2022-09-07T02:30:06.131Z,64.23
2022-09-07T02:31:06.290Z,64.23
2022-09-07T02:32:06.107Z,64.23
2022-09-07T02:33:06.095Z,64.23
2022-09-07T02:34:06.079Z,64.23
2022-09-07T02:35:06.068Z,64.23
2022-09-07T02:36:06.052Z,64.23
2022-09-07T02:37:06.040Z,64.23
2022-09-07T02:38:06.025Z,64.23
2022-09-07T02:39:06.015Z,64.23
2022-09-07T02:40:06.095Z,64.23
2022-09-07T02:41:05.988Z,64.23
2022-09-07T02:42:05.976Z,64.23
2022-09-07T02:43:05.963Z,64.23
2022-09-07T02:44:05.948Z,64.23
2022-09-07T02:45:05.936Z,64.23
2022-09-07T02:46:06.014Z,64.23
2022-09-07T02:47:05.912Z,64.23
2022-09-07T02:48:05.896Z,64.23
2022-09-07T02:49:05.885Z,64.23
2022-09-07T02:50:05.868Z,64.23
2022-09-07T02:51:05.858Z,64.23
2022-09-07T02:52:05.844Z,64.23
2022-09-07T02:53:05.833Z,64.23
2022-09-07T02:54:05.820Z,64.23
2022-09-07T02:55:05.807Z,64.23
2022-09-07T02:56:05.791Z,64.23
2022-09-07T02:57:05.781Z,64.27
2022-09-07T02:58:05.766Z,64.23
2022-09-07T02:59:05.756Z,64.23
2022-09-07T03:00:05.740Z,64.23
2022-09-07T03:01:05.797Z,64.27
2022-09-07T03:02:05.806Z,64.23
2022-09-07T03:03:05.703Z,64.23
2022-09-07T03:04:05.692Z,64.23
2022-09-07T03:05:05.677Z,64.23
2022-09-07T03:06:05.664Z,64.27
2022-09-07T03:07:05.651Z,64.23
2022-09-07T03:08:05.640Z,64.23
2022-09-07T03:09:05.625Z,64.27
2022-09-07T03:10:05.611Z,64.27
2022-09-07T03:11:05.599Z,64.23
2022-09-07T03:12:05.585Z,64.27
2022-09-07T03:13:05.574Z,64.23
2022-09-07T03:14:05.559Z,64.36
2022-09-07T03:15:05.548Z,64.36
2022-09-07T03:16:05.586Z,64.33
2022-09-07T03:17:05.523Z,64.27
2022-09-07T03:18:05.521Z,64.27
2022-09-07T03:19:05.496Z,64.27
2022-09-07T03:20:05.482Z,64.27
2022-09-07T03:21:05.468Z,64.27
2022-09-07T03:22:05.457Z,64.27
2022-09-07T03:23:05.442Z,64.27
2022-09-07T03:24:05.431Z,64.27
2022-09-07T03:25:05.416Z,64.27
2022-09-07T03:26:05.405Z,64.27
2022-09-07T03:27:05.395Z,64.27
2022-09-07T03:28:05.379Z,64.27
2022-09-07T03:29:05.365Z,64.36
2022-09-07T03:30:05.352Z,64.36
2022-09-07T03:31:05.355Z,64.27
2022-09-07T03:32:05.325Z,64.36
2022-09-07T03:33:05.312Z,64.36
2022-09-07T03:34:05.300Z,64.27
2022-09-07T03:35:05.288Z,64.27
2022-09-07T03:36:05.273Z,64.27
2022-09-07T03:37:05.259Z,64.27
2022-09-07T03:38:05.251Z,64.27
2022-09-07T03:39:05.234Z,64.27
2022-09-07T03:40:05.278Z,64.27
2022-09-07T03:41:05.206Z,64.27
2022-09-07T03:42:05.195Z,64.27
2022-09-07T03:43:05.180Z,64.27
2022-09-07T03:44:05.171Z,64.27
2022-09-07T03:45:05.157Z,64.27
2022-09-07T03:46:05.231Z,64.27
2022-09-07T03:47:05.129Z,64.27
2022-09-07T03:48:05.117Z,64.27
2022-09-07T03:49:05.104Z,64.27
2022-09-07T03:50:05.093Z,64.27
2022-09-07T03:51:05.077Z,64.27
2022-09-07T03:52:05.070Z,64.27
2022-09-07T03:53:05.050Z,64.27
2022-09-07T03:54:05.039Z,64.27
2022-09-07T03:55:05.031Z,64.27
2022-09-07T03:56:05.013Z,64.36
2022-09-07T03:57:04.998Z,64.27
2022-09-07T03:58:04.987Z,64.27
2022-09-07T03:59:04.973Z,64.36
2022-09-07T04:00:04.963Z,64.27
2022-09-07T04:01:05.007Z,64.36
2022-09-07T04:02:05.044Z,64.36
2022-09-07T04:03:04.920Z,64.97
2022-09-07T04:04:04.910Z,64.56
2022-09-07T04:05:04.895Z,64.77
2022-09-07T04:06:04.884Z,64.86
2022-09-07T04:07:04.869Z,64.56
2022-09-07T04:08:04.856Z,64.77
2022-09-07T04:09:04.842Z,64.66
2022-09-07T04:10:04.839Z,64.56
2022-09-07T04:11:04.817Z,64.56
2022-09-07T04:12:04.806Z,64.77
2022-09-07T04:13:04.792Z,64.77
2022-09-07T04:14:04.780Z,64.97
2022-09-07T04:15:04.764Z,65.27
2022-09-07T04:16:04.755Z,65.87
2022-09-07T04:17:04.826Z,65.87
2022-09-07T04:18:04.728Z,64.86
2022-09-07T04:19:04.712Z,65.06
2022-09-07T04:20:04.705Z,65.06
2022-09-07T04:21:04.690Z,64.97
2022-09-07T04:22:04.675Z,64.97
2022-09-07T04:23:04.667Z,65.27
2022-09-07T04:24:04.649Z,65.27
2022-09-07T04:25:04.633Z,65.27
2022-09-07T04:26:04.623Z,65.57
2022-09-07T04:27:04.607Z,65.57
2022-09-07T04:28:04.602Z,65.67
2022-09-07T04:29:04.580Z,65.67
2022-09-07T04:30:04.570Z,65.87
2022-09-07T04:31:04.665Z,65.47
2022-09-07T04:32:04.542Z,65.36
2022-09-07T04:33:04.528Z,65.47
2022-09-07T04:34:04.517Z,65.57
2022-09-07T04:35:04.505Z,65.36
2022-09-07T04:36:04.492Z,65.36
2022-09-07T04:37:04.479Z,65.36
2022-09-07T04:38:04.466Z,65.27
2022-09-07T04:39:04.477Z,65.27
2022-09-07T04:40:04.505Z,65.27
2022-09-07T04:41:04.425Z,65.17
2022-09-07T04:42:04.433Z,65.17
2022-09-07T04:43:04.398Z,65.17
2022-09-07T04:44:04.391Z,65.17
2022-09-07T04:45:04.371Z,65.17
2022-09-07T04:46:04.414Z,65.27
2022-09-07T04:47:04.344Z,65.27
2022-09-07T04:48:04.333Z,65.27
2022-09-07T04:49:04.317Z,65.17
2022-09-07T04:50:04.305Z,64.97
2022-09-07T04:51:05.877Z,64.97
2022-09-07T04:52:04.282Z,65.06
2022-09-07T04:53:04.263Z,65.06
2022-09-07T04:54:04.250Z,65.06
2022-09-07T04:55:04.235Z,65.06
2022-09-07T04:56:04.224Z,64.97
2022-09-07T04:57:04.210Z,64.97
2022-09-07T04:58:04.197Z,64.97
2022-09-07T04:59:04.183Z,64.97
2022-09-07T05:00:04.171Z,64.86
2022-09-07T05:01:04.186Z,64.86
2022-09-07T05:02:04.199Z,64.86
2022-09-07T05:03:04.128Z,64.86
2022-09-07T05:04:04.117Z,64.86
2022-09-07T05:05:04.103Z,64.86
2022-09-07T05:06:04.094Z,64.77
2022-09-07T05:07:04.074Z,64.77
2022-09-07T05:08:04.063Z,64.77
2022-09-07T05:09:04.047Z,64.77
2022-09-07T05:10:04.034Z,64.77
2022-09-07T05:11:04.021Z,64.77
2022-09-07T05:12:04.009Z,64.66
2022-09-07T05:13:03.994Z,64.66
2022-09-07T05:14:03.993Z,64.66
2022-09-07T05:15:03.967Z,64.66
2022-09-07T05:16:10.015Z,64.66
2022-09-07T05:17:04.056Z,64.56
2022-09-07T05:18:03.930Z,64.56
2022-09-07T05:19:03.916Z,64.56
2022-09-07T05:20:03.902Z,64.56
2022-09-07T05:21:03.887Z,64.56
2022-09-07T05:22:03.875Z,64.56
2022-09-07T05:23:03.859Z,64.56
2022-09-07T05:24:03.848Z,64.56
2022-09-07T05:25:03.834Z,64.56
2022-09-07T05:26:03.822Z,64.56
2022-09-07T05:27:03.808Z,64.56
2022-09-07T05:28:03.795Z,64.56
2022-09-07T05:30:05.831Z,64.56
2022-09-07T05:31:19.791Z,64.46
2022-09-07T05:32:04.782Z,64.56
2022-09-07T05:33:03.727Z,64.56
2022-09-07T05:34:33.702Z,64.46
2022-09-07T05:35:04.740Z,64.46
2022-09-07T05:36:03.688Z,64.46
2022-09-07T05:37:03.674Z,64.46
2022-09-07T05:38:03.659Z,64.46
2022-09-07T05:39:03.648Z,64.46
2022-09-07T05:40:03.718Z,64.46
2022-09-07T05:41:03.619Z,64.46
2022-09-07T05:42:03.606Z,64.46
2022-09-07T05:43:03.590Z,64.46
2022-09-07T05:45:04.609Z,64.46
2022-09-07T05:46:03.633Z,64.46
2022-09-07T05:47:03.539Z,64.46
2022-09-07T05:48:03.525Z,64.46
2022-09-07T05:49:03.512Z,64.46
2022-09-07T05:50:03.499Z,64.46
2022-09-07T05:51:03.532Z,64.56
2022-09-07T05:52:03.472Z,64.46
2022-09-07T05:53:03.455Z,64.46
2022-09-07T05:54:03.444Z,64.46
2022-09-07T05:55:28.310Z,64.56
2022-09-07T05:56:07.107Z,64.46
2022-09-07T05:57:03.439Z,64.46
2022-09-07T05:58:03.390Z,64.56
2022-09-07T05:59:03.382Z,64.46
2022-09-07T06:00:03.366Z,64.46
2022-09-07T06:01:03.349Z,64.46
2022-09-07T06:02:03.507Z,64.46
2022-09-07T06:03:03.487Z,64.46
2022-09-07T06:04:03.310Z,64.46
2022-09-07T06:05:03.297Z,64.46
2022-09-07T06:06:03.286Z,64.46
2022-09-07T06:07:22.185Z,64.46
2022-09-07T06:08:04.296Z,64.46
2022-09-07T06:09:03.247Z,64.46
2022-09-07T06:11:03.260Z,64.46
2022-09-07T06:12:03.218Z,64.46
2022-09-07T06:13:03.206Z,64.46
2022-09-07T06:14:03.191Z,64.46
2022-09-07T06:15:03.181Z,64.46
2022-09-07T06:16:03.193Z,64.46
2022-09-07T06:17:03.138Z,64.46
2022-09-07T06:18:03.200Z,64.46
2022-09-07T06:19:03.147Z,64.46
2022-09-07T06:20:03.097Z,64.46
2022-09-07T06:21:03.085Z,64.46
2022-09-07T06:22:03.074Z,64.36
2022-09-07T06:23:03.059Z,64.36
2022-09-07T06:24:03.050Z,64.36
2022-09-07T06:25:03.033Z,64.36
2022-09-07T06:26:03.019Z,64.36
2022-09-07T06:27:03.007Z,64.36
2022-09-07T06:28:02.992Z,64.36
2022-09-07T06:29:02.978Z,64.36
2022-09-07T06:30:02.968Z,64.27
2022-09-07T06:31:02.951Z,64.27
2022-09-07T06:33:03.967Z,64.46
2022-09-07T06:34:02.914Z,64.77
2022-09-07T06:35:02.904Z,64.86
2022-09-07T06:36:02.885Z,64.77
2022-09-07T06:37:02.870Z,64.66
2022-09-07T06:38:02.865Z,64.77
2022-09-07T06:39:02.848Z,64.56
2022-09-07T06:40:02.886Z,64.46
2022-09-07T06:42:03.852Z,66.17
2022-09-07T06:43:02.792Z,66.57
2022-09-07T06:44:02.781Z,67.27
2022-09-07T06:45:02.768Z,67.38
2022-09-07T06:47:04.341Z,66.87
2022-09-07T06:48:02.729Z,66.47
2022-09-07T06:49:02.720Z,66.37
2022-09-07T06:50:02.705Z,65.67
2022-09-07T06:51:02.692Z,65.27
2022-09-07T06:52:02.674Z,65.06
2022-09-07T06:55:04.634Z,66.17
2022-09-07T06:56:02.623Z,66.77
2022-09-07T06:57:02.608Z,66.27
2022-09-07T06:58:02.599Z,65.97
2022-09-07T06:59:02.582Z,65.47
2022-09-07T07:00:02.571Z,65.27
2022-09-07T07:01:02.608Z,65.17
2022-09-07T07:02:02.552Z,65.06
2022-09-07T07:03:02.553Z,65.06
2022-09-07T07:04:02.519Z,65.06
2022-09-07T07:05:02.506Z,64.97
2022-09-07T07:06:02.496Z,64.94
2022-09-07T07:07:02.480Z,65.03
2022-09-07T07:08:02.467Z,65.03
2022-09-07T07:09:02.453Z,64.83
2022-09-07T07:10:02.442Z,65.03
2022-09-07T07:11:02.431Z,65.03
2022-09-07T07:12:02.412Z,65.03
2022-09-07T07:13:02.403Z,65.14
2022-09-07T07:14:02.390Z,65.06
2022-09-07T07:15:02.376Z,65.03
2022-09-07T07:16:02.417Z,65.03
2022-09-07T07:17:02.365Z,65.03
2022-09-07T07:18:20.358Z,65.03
2022-09-07T07:19:03.364Z,65.14
2022-09-07T07:20:08.313Z,65.27
2022-09-07T07:21:02.297Z,65.33
2022-09-07T07:22:14.467Z,65.44
2022-09-07T07:23:03.312Z,65.33
2022-09-07T07:24:07.529Z,65.24
2022-09-07T07:25:02.243Z,65.33
2022-09-07T07:26:02.231Z,65.24
2022-09-07T07:27:02.216Z,65.33
2022-09-07T07:29:04.448Z,65.64
2022-09-07T07:30:02.177Z,65.74
2022-09-07T07:31:06.005Z,65.64
2022-09-07T07:32:02.155Z,65.64
2022-09-07T07:33:02.237Z,65.64
2022-09-07T07:34:02.237Z,65.53
2022-09-07T07:35:02.189Z,65.44
2022-09-07T07:36:02.095Z,65.53
2022-09-07T07:37:02.086Z,65.64
2022-09-07T07:39:02.884Z,65.44
2022-09-07T07:40:19.873Z,65.44
2022-09-07T07:42:05.087Z,65.44
2022-09-07T07:43:02.004Z,65.44
2022-09-07T07:44:01.993Z,65.53
2022-09-07T07:46:05.552Z,65.53
2022-09-07T07:47:02.004Z,65.53
2022-09-07T07:48:01.938Z,65.53
2022-09-07T07:49:01.925Z,65.44
2022-09-07T07:50:32.785Z,65.53
2022-09-07T07:51:09.776Z,65.64
2022-09-07T07:54:02.898Z,65.84
2022-09-07T07:55:02.441Z,65.94
2022-09-07T07:56:02.871Z,65.74
2022-09-07T07:57:01.820Z,65.74
2022-09-07T07:58:01.807Z,65.74
2022-09-07T07:59:01.794Z,65.94
2022-09-07T08:00:01.786Z,65.94
2022-09-07T08:01:01.805Z,66.14
2022-09-07T08:02:01.852Z,66.14
2022-09-07T08:03:01.745Z,66.14
2022-09-07T08:04:01.726Z,66.14
2022-09-07T08:05:01.772Z,66.24
2022-09-07T08:06:01.724Z,66.24
2022-09-07T08:07:05.556Z,66.14
2022-09-07T08:08:02.717Z,66.14
2022-09-07T08:09:01.665Z,66.24
2022-09-07T08:10:01.650Z,66.14
2022-09-07T08:11:01.638Z,66.14
2022-09-07T08:12:01.623Z,66.21
2022-09-07T08:13:01.612Z,66.11
2022-09-07T08:14:01.595Z,66.11
2022-09-07T08:15:01.670Z,66.11
2022-09-07T08:16:01.619Z,65.81
2022-09-07T08:17:01.557Z,66.14
2022-09-07T08:18:07.547Z,66.34
2022-09-07T08:19:01.539Z,66.44
2022-09-07T08:20:01.516Z,66.34
2022-09-07T08:21:01.505Z,66.34
2022-09-07T08:22:01.512Z,66.34
2022-09-07T08:23:01.477Z,66.34
2022-09-07T08:24:01.463Z,66.34
2022-09-07T08:25:01.495Z,66.74
2022-09-07T08:26:01.441Z,66.64
2022-09-07T08:27:01.425Z,66.61
2022-09-07T08:28:01.411Z,66.41
2022-09-07T08:29:01.398Z,66.31
2022-09-07T08:30:01.384Z,66.21
2022-09-07T08:31:01.373Z,66.00
2022-09-07T08:32:01.442Z,65.61
2022-09-07T08:33:01.347Z,65.61
2022-09-07T08:34:01.332Z,65.91
2022-09-07T08:35:01.333Z,65.71
2022-09-07T08:36:01.302Z,65.50
2022-09-07T08:37:01.298Z,65.50
2022-09-07T08:38:01.304Z,65.41
2022-09-07T08:39:01.269Z,65.41
2022-09-07T08:40:01.319Z,65.41
2022-09-07T08:41:01.242Z,65.30
2022-09-07T08:42:36.182Z,65.20
2022-09-07T08:43:36.167Z,65.30
2022-09-07T08:44:36.155Z,65.20
2022-09-07T08:45:36.139Z,65.41
2022-09-07T08:46:36.195Z,65.30
2022-09-07T08:47:36.114Z,65.30
2022-09-07T08:48:36.102Z,65.41
2022-09-07T08:49:36.090Z,65.30
2022-09-07T08:50:36.074Z,65.30
2022-09-07T08:51:36.061Z,65.20
2022-09-07T08:52:36.048Z,65.30
2022-09-07T08:53:36.075Z,65.30
2022-09-07T08:54:36.025Z,65.41
2022-09-07T08:55:36.005Z,65.41
2022-09-07T08:56:36.102Z,65.30
2022-09-07T08:57:35.981Z,65.20
2022-09-07T08:58:50.697Z,65.30
2022-09-07T08:59:36.994Z,65.20
2022-09-07T09:00:35.943Z,65.20
2022-09-07T09:01:36.616Z,65.20
2022-09-07T09:02:42.489Z,65.30
2022-09-07T09:04:15.604Z,65.41
2022-09-07T09:05:16.456Z,65.50
2022-09-07T09:05:37.035Z,65.50
2022-09-07T09:06:36.084Z,65.50
2022-09-07T09:07:35.849Z,65.30
2022-09-07T09:08:35.837Z,65.20
2022-09-07T09:09:35.846Z,65.10
2022-09-07T09:10:35.813Z,65.30
2022-09-07T09:11:35.801Z,65.20
2022-09-07T09:12:37.886Z,65.10
2022-09-07T09:13:35.772Z,65.20
2022-09-07T09:14:35.759Z,65.20
2022-09-07T09:15:35.791Z,65.20
2022-09-07T09:16:35.732Z,65.20
2022-09-07T09:17:35.723Z,65.10
2022-09-07T09:18:35.705Z,65.10
2022-09-07T09:19:35.694Z,65.10
2022-09-07T09:20:35.680Z,65.10
2022-09-07T09:21:35.670Z,65.10
2022-09-07T09:22:35.655Z,65.10
2022-09-07T09:23:35.643Z,65.20
2022-09-07T09:24:41.657Z,65.20
2022-09-07T09:25:35.619Z,65.00
2022-09-07T09:26:35.602Z,65.00
2022-09-07T09:27:35.591Z,65.00
2022-09-07T09:28:35.839Z,64.91
2022-09-07T09:29:35.570Z,64.91
2022-09-07T09:30:35.550Z,64.91
2022-09-07T09:32:06.539Z,64.91
2022-09-07T09:34:49.378Z,64.91
2022-09-07T09:36:24.319Z,64.91
2022-09-07T09:38:05.259Z,65.00
2022-09-07T09:38:59.245Z,65.00
2022-09-07T09:40:02.858Z,65.00
2022-09-07T09:40:59.213Z,65.00
2022-09-07T09:41:59.200Z,65.00
2022-09-07T09:42:59.188Z,65.00
2022-09-07T09:43:59.176Z,65.00
2022-09-07T09:44:59.161Z,64.91
2022-09-07T09:46:14.624Z,64.91
2022-09-07T09:48:01.183Z,64.91
2022-09-07T09:48:59.109Z,65.10
2022-09-07T09:49:59.099Z,65.00
2022-09-07T09:53:00.094Z,64.97
2022-09-07T09:53:59.046Z,64.97
2022-09-07T09:55:17.205Z,64.97
2022-09-07T09:56:00.098Z,64.97
2022-09-07T09:59:58.196Z,64.88
2022-09-07T10:04:42.490Z,64.77
2022-09-07T10:05:42.476Z,64.57
2022-09-07T10:06:42.461Z,64.57
2022-09-07T10:07:42.450Z,64.57
2022-09-07T10:08:42.437Z,64.57
2022-09-07T10:09:42.424Z,64.67
2022-09-07T10:10:42.411Z,64.57
2022-09-07T10:12:12.359Z,64.57
2022-09-07T10:12:43.425Z,64.57
2022-09-07T10:13:42.372Z,64.47
2022-09-07T10:14:42.357Z,64.47
2022-09-07T10:15:42.424Z,64.57
2022-09-07T10:16:42.331Z,64.47
2022-09-07T10:17:42.319Z,64.47
2022-09-07T10:18:42.305Z,64.57
2022-09-07T10:19:42.300Z,64.47
2022-09-07T10:20:42.278Z,64.37
2022-09-07T10:21:42.268Z,64.37
2022-09-07T10:22:42.253Z,64.27
2022-09-07T10:23:42.240Z,64.17
2022-09-07T10:24:42.227Z,64.17
2022-09-07T10:25:42.222Z,64.07
2022-09-07T10:26:42.204Z,64.07
2022-09-07T10:27:42.215Z,64.17
2022-09-07T10:29:43.201Z,63.94
2022-09-07T10:30:42.202Z,63.64
2022-09-07T10:31:42.197Z,63.34
2022-09-07T10:32:42.124Z,63.34
2022-09-07T10:33:42.121Z,63.54
2022-09-07T10:35:17.051Z,63.91
2022-09-07T10:36:23.042Z,63.11
2022-09-07T10:37:17.024Z,62.81
2022-09-07T10:38:17.012Z,63.01
2022-09-07T10:39:16.998Z,63.11
2022-09-07T10:40:17.046Z,63.01
2022-09-07T10:41:16.972Z,63.11
2022-09-07T10:42:16.959Z,63.11
2022-09-07T10:43:24.243Z,63.01
2022-09-07T10:44:17.970Z,63.01
2022-09-07T10:45:16.919Z,62.91
2022-09-07T10:47:17.035Z,63.51
2022-09-07T10:48:16.879Z,63.31
2022-09-07T10:49:16.873Z,63.21
2022-09-07T10:50:24.261Z,63.11
2022-09-07T10:51:24.845Z,63.11
2022-09-07T10:52:16.826Z,63.11
2022-09-07T10:53:39.435Z,62.91
2022-09-07T10:54:33.420Z,62.81
2022-09-07T10:55:18.432Z,62.91
2022-09-07T10:56:16.777Z,62.81
2022-09-07T10:57:16.769Z,62.81
2022-09-07T10:58:16.748Z,62.71
2022-09-07T10:59:16.777Z,62.81
2022-09-07T11:00:22.726Z,62.60
2022-09-07T11:01:16.782Z,62.71
2022-09-07T11:02:16.728Z,62.71
2022-09-07T11:03:32.110Z,62.71
2022-09-07T11:04:17.713Z,62.60
2022-09-07T11:05:16.658Z,62.60
2022-09-07T11:06:16.641Z,62.71
2022-09-07T11:07:16.630Z,62.71
2022-09-07T11:08:16.616Z,62.71
2022-09-07T11:09:17.926Z,62.81
2022-09-07T11:10:16.590Z,62.81
2022-09-07T11:11:16.578Z,62.71
2022-09-07T11:12:16.565Z,62.60
2022-09-07T11:14:12.041Z,62.60
2022-09-07T11:14:52.561Z,62.60
2022-09-07T11:15:51.545Z,62.51
2022-09-07T11:16:51.917Z,62.81
2022-09-07T11:17:53.145Z,62.98
2022-09-07T11:18:51.535Z,62.68
2022-09-07T11:19:51.423Z,62.57
2022-09-07T11:20:51.409Z,62.38
2022-09-07T11:21:58.501Z,62.48
2022-09-07T11:22:52.534Z,62.48
2022-09-07T11:23:51.372Z,62.60
2022-09-07T11:25:52.098Z,62.57
2022-09-07T11:26:51.330Z,62.57
2022-09-07T11:27:51.319Z,62.57
2022-09-07T11:29:29.119Z,62.57
2022-09-07T11:29:52.349Z,62.57
2022-09-07T11:30:51.352Z,62.57
2022-09-07T11:31:51.267Z,62.48
2022-09-07T11:32:51.253Z,62.48
2022-09-07T11:34:52.432Z,62.51
2022-09-07T11:35:51.220Z,62.51
2022-09-07T11:36:51.198Z,62.60
2022-09-07T11:37:51.189Z,62.60
2022-09-07T11:38:51.172Z,62.71
2022-09-07T11:39:51.250Z,62.60
2022-09-07T11:40:51.148Z,62.60
2022-09-07T11:41:51.137Z,62.81
2022-09-07T11:42:51.124Z,62.68
2022-09-07T11:43:51.110Z,62.57
2022-09-07T11:44:51.097Z,62.48
2022-09-07T11:45:51.160Z,62.38
2022-09-07T11:46:51.093Z,62.38
2022-09-07T11:47:51.063Z,62.38
2022-09-07T11:48:51.046Z,62.28
2022-09-07T11:49:54.112Z,62.28
2022-09-07T11:50:51.020Z,62.38
2022-09-07T11:51:53.748Z,62.28
2022-09-07T11:52:53.588Z,62.28
2022-09-07T11:53:50.976Z,62.18
2022-09-07T11:54:50.965Z,62.07
2022-09-07T11:55:50.952Z,62.07
2022-09-07T11:56:50.939Z,62.18
2022-09-07T11:57:55.328Z,62.18
2022-09-07T11:58:50.913Z,62.18
2022-09-07T11:59:50.896Z,62.18
2022-09-07T12:00:50.884Z,62.18
2022-09-07T12:01:50.880Z,62.28
2022-09-07T12:03:25.861Z,62.28
2022-09-07T12:04:25.862Z,62.28
2022-09-07T12:05:25.784Z,62.28
2022-09-07T12:06:25.768Z,62.18
2022-09-07T12:07:25.757Z,62.07
2022-09-07T12:08:25.875Z,61.77
2022-09-07T12:09:25.733Z,61.65
2022-09-07T12:10:25.719Z,61.55
2022-09-07T12:11:25.755Z,61.55
2022-09-07T12:12:25.689Z,61.65
2022-09-07T12:13:25.679Z,61.68
2022-09-07T12:14:25.664Z,61.68
2022-09-07T12:15:25.694Z,61.65
2022-09-07T12:16:25.638Z,61.45
2022-09-07T12:17:25.625Z,61.45
2022-09-07T12:18:25.611Z,61.45
2022-09-07T12:19:25.650Z,61.45
2022-09-07T12:20:25.585Z,61.45
2022-09-07T12:21:25.573Z,61.35
2022-09-07T12:22:25.559Z,61.35
2022-09-07T12:23:25.547Z,61.24
2022-09-07T12:24:25.532Z,61.24
2022-09-07T12:25:25.520Z,61.24
2022-09-07T12:26:25.506Z,61.15
2022-09-07T12:27:25.494Z,61.15
2022-09-07T12:28:25.487Z,61.15
2022-09-07T12:29:25.467Z,61.15
2022-09-07T12:30:25.454Z,61.15
2022-09-07T12:31:27.306Z,61.15
2022-09-07T12:32:56.546Z,61.35
2022-09-07T12:33:26.450Z,61.45
2022-09-07T12:34:25.399Z,61.45
2022-09-07T12:35:25.412Z,61.45
2022-09-07T12:36:25.375Z,61.45
2022-09-07T12:37:25.361Z,61.35
2022-09-07T12:38:25.349Z,61.45
2022-09-07T12:39:25.335Z,61.15
2022-09-07T12:40:25.323Z,61.15
2022-09-07T12:41:25.307Z,61.15
2022-09-07T12:42:32.927Z,61.24
2022-09-07T12:43:27.652Z,61.15
2022-09-07T12:44:29.257Z,61.24
2022-09-07T12:45:25.260Z,61.45
2022-09-07T12:46:25.293Z,61.35
2022-09-07T12:47:25.232Z,61.35
2022-09-07T12:48:25.220Z,61.35
2022-09-07T12:49:25.203Z,61.15
2022-09-07T12:50:25.193Z,61.15
2022-09-07T12:52:26.206Z,60.82
2022-09-07T12:53:25.202Z,60.62
2022-09-07T12:54:25.142Z,60.52
2022-09-07T12:55:28.469Z,60.85
2022-09-07T12:56:25.114Z,60.91
2022-09-07T12:57:32.384Z,60.91
2022-09-07T12:58:26.127Z,60.85
2022-09-07T12:59:25.074Z,60.85
2022-09-07T13:00:25.068Z,61.05
2022-09-07T13:01:25.261Z,61.05
2022-09-07T13:02:25.184Z,61.05
2022-09-07T13:03:53.013Z,61.24
2022-09-07T13:04:26.048Z,61.15
2022-09-07T13:05:24.995Z,61.15
2022-09-07T13:07:26.033Z,60.62
2022-09-07T13:08:24.957Z,60.52
2022-09-07T13:09:24.984Z,60.62
2022-09-07T13:10:24.956Z,60.62
2022-09-07T13:11:24.916Z,60.52
2022-09-07T13:14:25.916Z,60.72
2022-09-07T13:15:24.912Z,60.72
2022-09-07T13:16:24.918Z,60.72
2022-09-07T13:17:26.453Z,60.62
2022-09-07T13:18:24.827Z,60.62
2022-09-07T13:19:24.821Z,60.85
2022-09-07T13:20:24.800Z,60.94
2022-09-07T13:21:24.789Z,60.94
2022-09-07T13:22:24.774Z,60.85
2022-09-07T13:23:24.866Z,60.94
2022-09-07T13:25:25.821Z,61.05
2022-09-07T13:26:24.720Z,61.15
2022-09-07T13:27:24.705Z,61.35
2022-09-07T13:28:24.693Z,61.45
2022-09-07T13:29:24.679Z,61.24
2022-09-07T13:30:24.668Z,61.05